sensor_id;sensor_type;location;lat;lon;timestamp;P1;durP1;ratioP1;P2;durP2;ratioP2
10088;SDS011;51898;49.864;8.550;2024-03-25T00:00:08;3.77;;;2.20;;
10088;SDS011;51898;49.864;8.550;2024-03-25T00:03:13;6.17;;;2.33;;
10088;SDS011;51898;49.864;8.550;2024-03-25T00:06:14;3.33;;;1.93;;
10088;SDS011;51898;49.864;8.550;2024-03-25T00:09:14;4.87;;;2.20;;
10088;SDS011;51898;49.864;8.550;2024-03-25T00:12:15;7.50;;;2.27;;
10088;SDS011;51898;49.864;8.550;2024-03-25T00:15:16;4.43;;;1.93;;
10088;SDS011;51898;49.864;8.550;2024-03-25T00:18:16;2.90;;;2.20;;
10088;SDS011;51898;49.864;8.550;2024-03-25T00:21:17;8.00;;;2.20;;
10088;SDS011;51898;49.864;8.550;2024-03-25T00:24:18;4.17;;;1.70;;
10088;SDS011;51898;49.864;8.550;2024-03-25T00:27:19;2.43;;;1.73;;
10088;SDS011;51898;49.864;8.550;2024-03-25T00:30:20;3.40;;;2.10;;
10088;SDS011;51898;49.864;8.550;2024-03-25T00:33:21;2.30;;;1.57;;
10088;SDS011;51898;49.864;8.550;2024-03-25T00:36:22;4.90;;;1.70;;
10088;SDS011;51898;49.864;8.550;2024-03-25T00:39:23;5.73;;;2.00;;
10088;SDS011;51898;49.864;8.550;2024-03-25T00:42:24;3.80;;;1.93;;
10088;SDS011;51898;49.864;8.550;2024-03-25T00:45:25;9.43;;;1.93;;
10088;SDS011;51898;49.864;8.550;2024-03-25T00:48:30;9.43;;;2.30;;
10088;SDS011;51898;49.864;8.550;2024-03-25T00:51:31;4.40;;;1.90;;
10088;SDS011;51898;49.864;8.550;2024-03-25T00:54:32;9.07;;;2.30;;
10088;SDS011;51898;49.864;8.550;2024-03-25T00:57:32;4.50;;;2.00;;
10088;SDS011;51898;49.864;8.550;2024-03-25T01:00:33;4.77;;;2.30;;
10088;SDS011;51898;49.864;8.550;2024-03-25T01:03:34;4.73;;;2.00;;
10088;SDS011;51898;49.864;8.550;2024-03-25T01:06:35;5.30;;;1.90;;
10088;SDS011;51898;49.864;8.550;2024-03-25T01:09:36;4.10;;;1.80;;
10088;SDS011;51898;49.864;8.550;2024-03-25T01:12:36;4.03;;;2.37;;
10088;SDS011;51898;49.864;8.550;2024-03-25T01:15:37;3.17;;;1.87;;
10088;SDS011;51898;49.864;8.550;2024-03-25T01:18:38;8.13;;;2.30;;
10088;SDS011;51898;49.864;8.550;2024-03-25T01:21:38;6.00;;;2.00;;
10088;SDS011;51898;49.864;8.550;2024-03-25T01:24:39;2.30;;;1.90;;
10088;SDS011;51898;49.864;8.550;2024-03-25T01:27:40;3.83;;;1.47;;
10088;SDS011;51898;49.864;8.550;2024-03-25T01:30:41;3.23;;;1.93;;
10088;SDS011;51898;49.864;8.550;2024-03-25T01:33:41;5.77;;;2.00;;
10088;SDS011;51898;49.864;8.550;2024-03-25T01:36:42;4.53;;;2.40;;
10088;SDS011;51898;49.864;8.550;2024-03-25T01:39:43;3.90;;;1.77;;
10088;SDS011;51898;49.864;8.550;2024-03-25T01:42:54;8.97;;;2.27;;
10088;SDS011;51898;49.864;8.550;2024-03-25T01:45:56;4.50;;;2.40;;
10088;SDS011;51898;49.864;8.550;2024-03-25T01:48:56;6.80;;;2.43;;
10088;SDS011;51898;49.864;8.550;2024-03-25T01:51:58;2.67;;;2.20;;
10088;SDS011;51898;49.864;8.550;2024-03-25T01:55:00;4.27;;;2.20;;
10088;SDS011;51898;49.864;8.550;2024-03-25T01:58:03;5.87;;;2.20;;
10088;SDS011;51898;49.864;8.550;2024-03-25T02:01:05;4.43;;;2.33;;
10088;SDS011;51898;49.864;8.550;2024-03-25T02:04:06;3.93;;;2.27;;
10088;SDS011;51898;49.864;8.550;2024-03-25T02:07:07;6.57;;;2.57;;
10088;SDS011;51898;49.864;8.550;2024-03-25T02:10:10;2.63;;;2.07;;
10088;SDS011;51898;49.864;8.550;2024-03-25T02:13:14;5.47;;;2.33;;
10088;SDS011;51898;49.864;8.550;2024-03-25T02:16:15;2.50;;;1.93;;
10088;SDS011;51898;49.864;8.550;2024-03-25T02:19:16;4.50;;;2.20;;
10088;SDS011;51898;49.864;8.550;2024-03-25T02:22:18;7.07;;;3.17;;
10088;SDS011;51898;49.864;8.550;2024-03-25T02:25:19;2.77;;;2.00;;
10088;SDS011;51898;49.864;8.550;2024-03-25T02:28:21;3.87;;;2.33;;
10088;SDS011;51898;49.864;8.550;2024-03-25T02:31:22;6.07;;;2.20;;
10088;SDS011;51898;49.864;8.550;2024-03-25T02:34:23;4.50;;;2.00;;
10088;SDS011;51898;49.864;8.550;2024-03-25T02:37:24;4.30;;;2.30;;
10088;SDS011;51898;49.864;8.550;2024-03-25T02:40:26;2.67;;;2.20;;
10088;SDS011;51898;49.864;8.550;2024-03-25T02:43:26;3.90;;;2.07;;
10088;SDS011;51898;49.864;8.550;2024-03-25T02:46:27;7.13;;;2.90;;
10088;SDS011;51898;49.864;8.550;2024-03-25T02:49:29;7.93;;;1.97;;
10088;SDS011;51898;49.864;8.550;2024-03-25T02:52:29;7.50;;;2.37;;
10088;SDS011;51898;49.864;8.550;2024-03-25T02:55:31;9.63;;;2.30;;
10088;SDS011;51898;49.864;8.550;2024-03-25T02:58:31;4.83;;;2.60;;
10088;SDS011;51898;49.864;8.550;2024-03-25T03:01:32;9.63;;;2.87;;
10088;SDS011;51898;49.864;8.550;2024-03-25T03:04:33;4.70;;;2.60;;
10088;SDS011;51898;49.864;8.550;2024-03-25T03:07:34;5.40;;;2.27;;
10088;SDS011;51898;49.864;8.550;2024-03-25T03:10:34;4.37;;;2.50;;
10088;SDS011;51898;49.864;8.550;2024-03-25T03:13:35;3.33;;;2.10;;
10088;SDS011;51898;49.864;8.550;2024-03-25T03:16:36;5.63;;;2.60;;
10088;SDS011;51898;49.864;8.550;2024-03-25T03:19:37;8.87;;;2.53;;
10088;SDS011;51898;49.864;8.550;2024-03-25T03:22:37;7.57;;;2.07;;
10088;SDS011;51898;49.864;8.550;2024-03-25T03:25:38;3.03;;;1.73;;
10088;SDS011;51898;49.864;8.550;2024-03-25T03:28:40;4.53;;;2.00;;
10088;SDS011;51898;49.864;8.550;2024-03-25T03:31:41;2.87;;;2.20;;
10088;SDS011;51898;49.864;8.550;2024-03-25T03:34:42;7.10;;;2.50;;
10088;SDS011;51898;49.864;8.550;2024-03-25T03:37:42;5.30;;;2.37;;
10088;SDS011;51898;49.864;8.550;2024-03-25T03:40:55;4.70;;;1.90;;
10088;SDS011;51898;49.864;8.550;2024-03-25T03:43:59;3.90;;;2.63;;
10088;SDS011;51898;49.864;8.550;2024-03-25T03:47:00;4.63;;;2.53;;
10088;SDS011;51898;49.864;8.550;2024-03-25T03:50:01;4.50;;;2.20;;
10088;SDS011;51898;49.864;8.550;2024-03-25T03:53:02;2.13;;;1.93;;
10088;SDS011;51898;49.864;8.550;2024-03-25T03:56:03;4.87;;;2.87;;
10088;SDS011;51898;49.864;8.550;2024-03-25T03:59:05;4.10;;;2.90;;
10088;SDS011;51898;49.864;8.550;2024-03-25T04:02:06;5.57;;;2.33;;
10088;SDS011;51898;49.864;8.550;2024-03-25T04:05:07;4.43;;;2.47;;
10088;SDS011;51898;49.864;8.550;2024-03-25T04:08:08;6.67;;;2.37;;
10088;SDS011;51898;49.864;8.550;2024-03-25T04:11:09;5.17;;;2.70;;
10088;SDS011;51898;49.864;8.550;2024-03-25T04:14:10;6.83;;;2.67;;
10088;SDS011;51898;49.864;8.550;2024-03-25T04:17:11;5.13;;;2.43;;
10088;SDS011;51898;49.864;8.550;2024-03-25T04:20:12;2.90;;;2.23;;
10088;SDS011;51898;49.864;8.550;2024-03-25T04:23:13;10.10;;;2.73;;
10088;SDS011;51898;49.864;8.550;2024-03-25T04:26:13;5.27;;;2.80;;
10088;SDS011;51898;49.864;8.550;2024-03-25T04:29:15;7.37;;;3.03;;
10088;SDS011;51898;49.864;8.550;2024-03-25T04:32:16;5.43;;;2.40;;
10088;SDS011;51898;49.864;8.550;2024-03-25T04:35:17;11.03;;;3.40;;
10088;SDS011;51898;49.864;8.550;2024-03-25T04:38:17;3.93;;;2.40;;
10088;SDS011;51898;49.864;8.550;2024-03-25T04:41:18;8.67;;;2.93;;
10088;SDS011;51898;49.864;8.550;2024-03-25T04:44:19;6.93;;;2.60;;
10088;SDS011;51898;49.864;8.550;2024-03-25T04:47:21;9.43;;;3.20;;
10088;SDS011;51898;49.864;8.550;2024-03-25T04:50:22;5.20;;;3.07;;
10088;SDS011;51898;49.864;8.550;2024-03-25T04:53:23;7.80;;;3.00;;
10088;SDS011;51898;49.864;8.550;2024-03-25T04:56:24;7.07;;;2.53;;
10088;SDS011;51898;49.864;8.550;2024-03-25T04:59:24;7.37;;;3.13;;
10088;SDS011;51898;49.864;8.550;2024-03-25T05:02:26;7.47;;;2.43;;
10088;SDS011;51898;49.864;8.550;2024-03-25T05:05:27;5.77;;;2.93;;
10088;SDS011;51898;49.864;8.550;2024-03-25T05:08:28;3.67;;;2.73;;
10088;SDS011;51898;49.864;8.550;2024-03-25T05:11:29;4.03;;;2.40;;
10088;SDS011;51898;49.864;8.550;2024-03-25T05:14:29;4.67;;;2.70;;
10088;SDS011;51898;49.864;8.550;2024-03-25T05:17:30;5.03;;;2.67;;
10088;SDS011;51898;49.864;8.550;2024-03-25T05:20:31;12.03;;;3.20;;
10088;SDS011;51898;49.864;8.550;2024-03-25T05:23:31;5.23;;;2.90;;
10088;SDS011;51898;49.864;8.550;2024-03-25T05:26:32;6.27;;;2.87;;
10088;SDS011;51898;49.864;8.550;2024-03-25T05:29:33;6.87;;;2.73;;
10088;SDS011;51898;49.864;8.550;2024-03-25T05:32:34;8.40;;;2.90;;
10088;SDS011;51898;49.864;8.550;2024-03-25T05:35:34;11.50;;;3.00;;
10088;SDS011;51898;49.864;8.550;2024-03-25T05:38:36;7.50;;;2.60;;
10088;SDS011;51898;49.864;8.550;2024-03-25T05:41:38;4.30;;;2.90;;
10088;SDS011;51898;49.864;8.550;2024-03-25T05:44:39;14.30;;;3.93;;
10088;SDS011;51898;49.864;8.550;2024-03-25T05:47:39;4.23;;;3.10;;
10088;SDS011;51898;49.864;8.550;2024-03-25T05:50:40;8.80;;;3.40;;
10088;SDS011;51898;49.864;8.550;2024-03-25T05:53:41;4.83;;;3.30;;
10088;SDS011;51898;49.864;8.550;2024-03-25T05:56:41;5.93;;;3.50;;
10088;SDS011;51898;49.864;8.550;2024-03-25T05:59:42;6.20;;;3.93;;
10088;SDS011;51898;49.864;8.550;2024-03-25T06:02:43;8.10;;;3.30;;
10088;SDS011;51898;49.864;8.550;2024-03-25T06:05:44;5.17;;;3.33;;
10088;SDS011;51898;49.864;8.550;2024-03-25T06:08:44;6.80;;;3.40;;
10088;SDS011;51898;49.864;8.550;2024-03-25T06:11:45;9.50;;;3.67;;
10088;SDS011;51898;49.864;8.550;2024-03-25T06:14:46;9.20;;;3.87;;
10088;SDS011;51898;49.864;8.550;2024-03-25T06:17:47;7.97;;;3.90;;
10088;SDS011;51898;49.864;8.550;2024-03-25T06:20:48;7.87;;;4.70;;
10088;SDS011;51898;49.864;8.550;2024-03-25T06:23:49;8.73;;;4.63;;
10088;SDS011;51898;49.864;8.550;2024-03-25T06:26:49;8.33;;;4.80;;
10088;SDS011;51898;49.864;8.550;2024-03-25T06:29:50;12.30;;;5.30;;
10088;SDS011;51898;49.864;8.550;2024-03-25T06:33:11;9.20;;;4.60;;
10088;SDS011;51898;49.864;8.550;2024-03-25T06:36:30;6.50;;;4.43;;
10088;SDS011;51898;49.864;8.550;2024-03-25T06:39:31;12.37;;;4.93;;
10088;SDS011;51898;49.864;8.550;2024-03-25T06:42:32;11.60;;;5.33;;
10088;SDS011;51898;49.864;8.550;2024-03-25T06:45:32;10.73;;;9.10;;
10088;SDS011;51898;49.864;8.550;2024-03-25T06:48:33;7.37;;;4.20;;
10088;SDS011;51898;49.864;8.550;2024-03-25T06:51:37;9.73;;;4.87;;
10088;SDS011;51898;49.864;8.550;2024-03-25T06:54:38;7.43;;;5.03;;
10088;SDS011;51898;49.864;8.550;2024-03-25T06:57:38;8.30;;;4.87;;
10088;SDS011;51898;49.864;8.550;2024-03-25T07:00:39;10.00;;;5.27;;
10088;SDS011;51898;49.864;8.550;2024-03-25T07:03:40;10.03;;;5.20;;
10088;SDS011;51898;49.864;8.550;2024-03-25T07:06:41;11.10;;;4.30;;
10088;SDS011;51898;49.864;8.550;2024-03-25T07:09:42;8.60;;;4.27;;
10088;SDS011;51898;49.864;8.550;2024-03-25T07:12:43;12.90;;;5.17;;
10088;SDS011;51898;49.864;8.550;2024-03-25T07:15:44;7.00;;;4.30;;
10088;SDS011;51898;49.864;8.550;2024-03-25T07:18:45;8.90;;;4.63;;
10088;SDS011;51898;49.864;8.550;2024-03-25T07:21:46;10.07;;;5.07;;
10088;SDS011;51898;49.864;8.550;2024-03-25T07:24:46;8.20;;;4.17;;
10088;SDS011;51898;49.864;8.550;2024-03-25T07:27:47;8.07;;;4.33;;
10088;SDS011;51898;49.864;8.550;2024-03-25T07:30:51;7.07;;;4.27;;
10088;SDS011;51898;49.864;8.550;2024-03-25T07:33:52;8.27;;;4.40;;
10088;SDS011;51898;49.864;8.550;2024-03-25T07:36:52;8.20;;;4.53;;
10088;SDS011;51898;49.864;8.550;2024-03-25T07:39:53;14.60;;;5.27;;
10088;SDS011;51898;49.864;8.550;2024-03-25T07:42:54;7.93;;;4.73;;
10088;SDS011;51898;49.864;8.550;2024-03-25T07:45:55;7.10;;;4.37;;
10088;SDS011;51898;49.864;8.550;2024-03-25T07:48:55;9.80;;;4.73;;
10088;SDS011;51898;49.864;8.550;2024-03-25T07:51:56;13.20;;;4.90;;
10088;SDS011;51898;49.864;8.550;2024-03-25T07:54:57;7.30;;;4.07;;
10088;SDS011;51898;49.864;8.550;2024-03-25T07:57:58;10.67;;;4.57;;
10088;SDS011;51898;49.864;8.550;2024-03-25T08:00:58;5.17;;;4.00;;
10088;SDS011;51898;49.864;8.550;2024-03-25T08:03:59;8.50;;;4.73;;
10088;SDS011;51898;49.864;8.550;2024-03-25T08:07:00;9.00;;;4.43;;
10088;SDS011;51898;49.864;8.550;2024-03-25T08:10:01;15.90;;;5.30;;
10088;SDS011;51898;49.864;8.550;2024-03-25T08:13:02;6.80;;;4.27;;
10088;SDS011;51898;49.864;8.550;2024-03-25T08:16:05;6.97;;;4.03;;
10088;SDS011;51898;49.864;8.550;2024-03-25T08:19:06;10.17;;;3.63;;
10088;SDS011;51898;49.864;8.550;2024-03-25T08:22:07;10.37;;;3.90;;
10088;SDS011;51898;49.864;8.550;2024-03-25T08:25:08;10.00;;;3.73;;
10088;SDS011;51898;49.864;8.550;2024-03-25T08:28:09;5.20;;;3.57;;
10088;SDS011;51898;49.864;8.550;2024-03-25T08:31:09;10.60;;;3.70;;
10088;SDS011;51898;49.864;8.550;2024-03-25T08:34:10;6.23;;;3.30;;
10088;SDS011;51898;49.864;8.550;2024-03-25T08:37:11;6.80;;;2.90;;
10088;SDS011;51898;49.864;8.550;2024-03-25T08:40:12;7.77;;;3.63;;
10088;SDS011;51898;49.864;8.550;2024-03-25T08:43:13;6.70;;;3.13;;
10088;SDS011;51898;49.864;8.550;2024-03-25T08:46:13;4.27;;;2.70;;
10088;SDS011;51898;49.864;8.550;2024-03-25T08:49:15;4.60;;;3.47;;
10088;SDS011;51898;49.864;8.550;2024-03-25T08:52:16;7.30;;;3.03;;
10088;SDS011;51898;49.864;8.550;2024-03-25T08:55:17;6.30;;;3.30;;
10088;SDS011;51898;49.864;8.550;2024-03-25T08:58:17;9.20;;;3.20;;
10088;SDS011;51898;49.864;8.550;2024-03-25T09:01:18;7.87;;;3.50;;
10088;SDS011;51898;49.864;8.550;2024-03-25T09:04:19;7.57;;;3.10;;
10088;SDS011;51898;49.864;8.550;2024-03-25T09:07:19;5.70;;;2.97;;
10088;SDS011;51898;49.864;8.550;2024-03-25T09:10:21;10.27;;;3.50;;
10088;SDS011;51898;49.864;8.550;2024-03-25T09:13:40;10.40;;;3.43;;
10088;SDS011;51898;49.864;8.550;2024-03-25T09:16:41;5.80;;;3.37;;
10088;SDS011;51898;49.864;8.550;2024-03-25T09:19:41;8.63;;;2.90;;
10088;SDS011;51898;49.864;8.550;2024-03-25T09:22:43;5.30;;;2.63;;
10088;SDS011;51898;49.864;8.550;2024-03-25T09:25:51;4.43;;;2.60;;
10088;SDS011;51898;49.864;8.550;2024-03-25T09:28:54;13.27;;;2.70;;
10088;SDS011;51898;49.864;8.550;2024-03-25T09:31:55;7.43;;;3.07;;
10088;SDS011;51898;49.864;8.550;2024-03-25T09:34:56;6.60;;;2.60;;
10088;SDS011;51898;49.864;8.550;2024-03-25T09:37:57;3.93;;;2.93;;
10088;SDS011;51898;49.864;8.550;2024-03-25T09:40:58;6.13;;;3.10;;
10088;SDS011;51898;49.864;8.550;2024-03-25T09:43:59;6.83;;;2.70;;
10088;SDS011;51898;49.864;8.550;2024-03-25T09:47:00;6.30;;;2.77;;
10088;SDS011;51898;49.864;8.550;2024-03-25T09:50:02;4.53;;;2.60;;
10088;SDS011;51898;49.864;8.550;2024-03-25T09:53:06;8.27;;;2.57;;
10088;SDS011;51898;49.864;8.550;2024-03-25T09:56:07;7.40;;;2.40;;
10088;SDS011;51898;49.864;8.550;2024-03-25T09:59:09;6.53;;;2.43;;
10088;SDS011;51898;49.864;8.550;2024-03-25T10:02:10;3.47;;;2.30;;
10088;SDS011;51898;49.864;8.550;2024-03-25T10:05:13;4.70;;;2.63;;
10088;SDS011;51898;49.864;8.550;2024-03-25T10:08:13;4.10;;;2.80;;
10088;SDS011;51898;49.864;8.550;2024-03-25T10:11:19;4.97;;;2.80;;
10088;SDS011;51898;49.864;8.550;2024-03-25T10:14:20;3.80;;;2.07;;
10088;SDS011;51898;49.864;8.550;2024-03-25T10:17:21;3.87;;;2.20;;
10088;SDS011;51898;49.864;8.550;2024-03-25T10:20:22;4.00;;;2.73;;
10088;SDS011;51898;49.864;8.550;2024-03-25T10:23:23;5.10;;;1.90;;
10088;SDS011;51898;49.864;8.550;2024-03-25T10:26:27;5.97;;;2.20;;
10088;SDS011;51898;49.864;8.550;2024-03-25T10:29:29;4.33;;;2.00;;
10088;SDS011;51898;49.864;8.550;2024-03-25T10:32:30;2.70;;;2.10;;
10088;SDS011;51898;49.864;8.550;2024-03-25T10:35:35;3.00;;;2.03;;
10088;SDS011;51898;49.864;8.550;2024-03-25T10:38:37;3.97;;;2.30;;
10088;SDS011;51898;49.864;8.550;2024-03-25T10:41:38;3.00;;;1.87;;
10088;SDS011;51898;49.864;8.550;2024-03-25T10:44:40;4.50;;;2.27;;
10088;SDS011;51898;49.864;8.550;2024-03-25T10:47:41;4.30;;;2.40;;
10088;SDS011;51898;49.864;8.550;2024-03-25T10:50:43;5.07;;;2.57;;
10088;SDS011;51898;49.864;8.550;2024-03-25T10:53:44;4.13;;;2.17;;
10088;SDS011;51898;49.864;8.550;2024-03-25T10:56:46;4.37;;;2.43;;
10088;SDS011;51898;49.864;8.550;2024-03-25T10:59:51;4.77;;;2.10;;
10088;SDS011;51898;49.864;8.550;2024-03-25T11:02:52;3.60;;;2.40;;
10088;SDS011;51898;49.864;8.550;2024-03-25T11:05:54;4.80;;;2.73;;
10088;SDS011;51898;49.864;8.550;2024-03-25T11:08:58;3.20;;;2.37;;
10088;SDS011;51898;49.864;8.550;2024-03-25T11:11:59;4.07;;;2.00;;
10088;SDS011;51898;49.864;8.550;2024-03-25T11:15:01;3.07;;;2.10;;
10088;SDS011;51898;49.864;8.550;2024-03-25T11:18:05;5.73;;;2.60;;
10088;SDS011;51898;49.864;8.550;2024-03-25T11:21:14;3.47;;;2.43;;
10088;SDS011;51898;49.864;8.550;2024-03-25T11:24:30;3.23;;;2.80;;
10088;SDS011;51898;49.864;8.550;2024-03-25T11:27:31;3.60;;;2.40;;
10088;SDS011;51898;49.864;8.550;2024-03-25T11:30:32;4.47;;;3.00;;
10088;SDS011;51898;49.864;8.550;2024-03-25T11:33:36;3.53;;;2.57;;
10088;SDS011;51898;49.864;8.550;2024-03-25T11:36:38;4.77;;;3.10;;
10088;SDS011;51898;49.864;8.550;2024-03-25T11:39:39;6.23;;;2.77;;
10088;SDS011;51898;49.864;8.550;2024-03-25T11:42:40;5.70;;;3.03;;
10088;SDS011;51898;49.864;8.550;2024-03-25T11:45:43;5.60;;;3.90;;
10088;SDS011;51898;49.864;8.550;2024-03-25T11:48:46;4.60;;;2.90;;
10088;SDS011;51898;49.864;8.550;2024-03-25T11:51:47;5.47;;;2.80;;
10088;SDS011;51898;49.864;8.550;2024-03-25T11:54:54;6.43;;;3.00;;
10088;SDS011;51898;49.864;8.550;2024-03-25T11:57:55;4.03;;;2.63;;
10088;SDS011;51898;49.864;8.550;2024-03-25T12:00:56;4.20;;;3.07;;
10088;SDS011;51898;49.864;8.550;2024-03-25T12:03:57;3.60;;;2.70;;
10088;SDS011;51898;49.864;8.550;2024-03-25T12:07:12;4.03;;;2.87;;
10088;SDS011;51898;49.864;8.550;2024-03-25T12:10:14;7.63;;;3.37;;
10088;SDS011;51898;49.864;8.550;2024-03-25T12:13:33;5.40;;;2.73;;
10088;SDS011;51898;49.864;8.550;2024-03-25T12:16:34;5.70;;;3.00;;
10088;SDS011;51898;49.864;8.550;2024-03-25T12:19:35;11.50;;;3.33;;
10088;SDS011;51898;49.864;8.550;2024-03-25T12:22:36;3.27;;;2.97;;
10088;SDS011;51898;49.864;8.550;2024-03-25T12:25:37;4.03;;;2.93;;
10088;SDS011;51898;49.864;8.550;2024-03-25T12:28:39;6.50;;;2.70;;
10088;SDS011;51898;49.864;8.550;2024-03-25T12:31:40;6.27;;;2.73;;
10088;SDS011;51898;49.864;8.550;2024-03-25T12:34:42;4.70;;;2.83;;
10088;SDS011;51898;49.864;8.550;2024-03-25T12:37:43;3.90;;;3.30;;
10088;SDS011;51898;49.864;8.550;2024-03-25T12:40:45;4.40;;;3.17;;
10088;SDS011;51898;49.864;8.550;2024-03-25T12:43:46;4.00;;;2.63;;
10088;SDS011;51898;49.864;8.550;2024-03-25T12:46:47;3.90;;;2.70;;
10088;SDS011;51898;49.864;8.550;2024-03-25T12:49:48;4.20;;;2.80;;
10088;SDS011;51898;49.864;8.550;2024-03-25T12:52:49;7.03;;;3.10;;
10088;SDS011;51898;49.864;8.550;2024-03-25T12:55:50;6.00;;;3.00;;
10088;SDS011;51898;49.864;8.550;2024-03-25T12:58:51;5.33;;;2.80;;
10088;SDS011;51898;49.864;8.550;2024-03-25T13:01:52;3.53;;;2.93;;
10088;SDS011;51898;49.864;8.550;2024-03-25T13:04:52;4.00;;;2.60;;
10088;SDS011;51898;49.864;8.550;2024-03-25T13:07:54;6.50;;;3.03;;
10088;SDS011;51898;49.864;8.550;2024-03-25T13:10:55;3.10;;;2.70;;
10088;SDS011;51898;49.864;8.550;2024-03-25T13:13:56;2.60;;;2.37;;
10088;SDS011;51898;49.864;8.550;2024-03-25T13:16:57;3.20;;;2.20;;
10088;SDS011;51898;49.864;8.550;2024-03-25T13:19:57;2.97;;;2.63;;
10088;SDS011;51898;49.864;8.550;2024-03-25T13:22:58;3.20;;;2.60;;
10088;SDS011;51898;49.864;8.550;2024-03-25T13:26:00;4.40;;;2.70;;
10088;SDS011;51898;49.864;8.550;2024-03-25T13:29:00;2.60;;;2.30;;
10088;SDS011;51898;49.864;8.550;2024-03-25T13:32:02;3.17;;;2.73;;
10088;SDS011;51898;49.864;8.550;2024-03-25T13:35:03;4.40;;;2.50;;
10088;SDS011;51898;49.864;8.550;2024-03-25T13:38:04;2.70;;;2.50;;
10088;SDS011;51898;49.864;8.550;2024-03-25T13:41:05;3.03;;;2.80;;
10088;SDS011;51898;49.864;8.550;2024-03-25T13:44:06;3.80;;;2.50;;
10088;SDS011;51898;49.864;8.550;2024-03-25T13:47:08;3.43;;;2.80;;
10088;SDS011;51898;49.864;8.550;2024-03-25T13:50:09;3.97;;;2.90;;
10088;SDS011;51898;49.864;8.550;2024-03-25T13:53:11;4.07;;;3.00;;
10088;SDS011;51898;49.864;8.550;2024-03-25T13:56:12;4.70;;;2.90;;
10088;SDS011;51898;49.864;8.550;2024-03-25T13:59:12;5.43;;;2.70;;
10088;SDS011;51898;49.864;8.550;2024-03-25T14:02:13;3.07;;;2.40;;
10088;SDS011;51898;49.864;8.550;2024-03-25T14:05:14;3.97;;;2.40;;
10088;SDS011;51898;49.864;8.550;2024-03-25T14:08:14;4.17;;;2.27;;
10088;SDS011;51898;49.864;8.550;2024-03-25T14:11:15;2.67;;;2.37;;
10088;SDS011;51898;49.864;8.550;2024-03-25T14:14:16;2.80;;;2.07;;
10088;SDS011;51898;49.864;8.550;2024-03-25T14:17:17;3.30;;;2.23;;
10088;SDS011;51898;49.864;8.550;2024-03-25T14:20:18;3.00;;;2.70;;
10088;SDS011;51898;49.864;8.550;2024-03-25T14:23:19;3.73;;;2.60;;
10088;SDS011;51898;49.864;8.550;2024-03-25T14:26:19;3.07;;;2.60;;
10088;SDS011;51898;49.864;8.550;2024-03-25T14:29:20;6.07;;;2.27;;
10088;SDS011;51898;49.864;8.550;2024-03-25T14:32:22;3.20;;;2.60;;
10088;SDS011;51898;49.864;8.550;2024-03-25T14:35:23;5.13;;;2.80;;
10088;SDS011;51898;49.864;8.550;2024-03-25T14:38:23;2.70;;;2.40;;
10088;SDS011;51898;49.864;8.550;2024-03-25T14:41:24;2.20;;;2.00;;
10088;SDS011;51898;49.864;8.550;2024-03-25T14:44:25;2.43;;;2.23;;
10088;SDS011;51898;49.864;8.550;2024-03-25T14:47:26;2.37;;;2.17;;
10088;SDS011;51898;49.864;8.550;2024-03-25T14:50:26;2.80;;;2.20;;
10088;SDS011;51898;49.864;8.550;2024-03-25T14:53:27;3.87;;;2.23;;
10088;SDS011;51898;49.864;8.550;2024-03-25T14:56:28;3.77;;;2.30;;
10088;SDS011;51898;49.864;8.550;2024-03-25T14:59:29;2.73;;;2.50;;
10088;SDS011;51898;49.864;8.550;2024-03-25T15:02:30;4.10;;;2.30;;
10088;SDS011;51898;49.864;8.550;2024-03-25T15:05:31;2.50;;;2.10;;
10088;SDS011;51898;49.864;8.550;2024-03-25T15:08:32;3.90;;;3.23;;
10088;SDS011;51898;49.864;8.550;2024-03-25T15:11:33;4.67;;;2.83;;
10088;SDS011;51898;49.864;8.550;2024-03-25T15:14:33;2.50;;;2.13;;
10088;SDS011;51898;49.864;8.550;2024-03-25T15:17:34;2.70;;;2.37;;
10088;SDS011;51898;49.864;8.550;2024-03-25T15:20:35;2.33;;;2.13;;
10088;SDS011;51898;49.864;8.550;2024-03-25T15:23:36;3.67;;;2.40;;
10088;SDS011;51898;49.864;8.550;2024-03-25T15:26:37;3.70;;;2.60;;
10088;SDS011;51898;49.864;8.550;2024-03-25T15:29:38;3.97;;;2.30;;
10088;SDS011;51898;49.864;8.550;2024-03-25T15:32:39;2.23;;;2.03;;
10088;SDS011;51898;49.864;8.550;2024-03-25T15:35:40;2.47;;;2.13;;
10088;SDS011;51898;49.864;8.550;2024-03-25T15:38:41;4.10;;;2.70;;
10088;SDS011;51898;49.864;8.550;2024-03-25T15:41:41;4.33;;;2.37;;
10088;SDS011;51898;49.864;8.550;2024-03-25T15:44:42;2.70;;;2.50;;
10088;SDS011;51898;49.864;8.550;2024-03-25T15:47:43;3.63;;;2.57;;
10088;SDS011;51898;49.864;8.550;2024-03-25T15:50:43;3.03;;;2.63;;
10088;SDS011;51898;49.864;8.550;2024-03-25T15:53:44;5.37;;;2.43;;
10088;SDS011;51898;49.864;8.550;2024-03-25T15:56:45;3.13;;;2.83;;
10088;SDS011;51898;49.864;8.550;2024-03-25T15:59:46;2.83;;;2.40;;
10088;SDS011;51898;49.864;8.550;2024-03-25T16:02:47;4.20;;;2.47;;
10088;SDS011;51898;49.864;8.550;2024-03-25T16:05:50;2.67;;;2.20;;
10088;SDS011;51898;49.864;8.550;2024-03-25T16:08:51;7.60;;;2.77;;
10088;SDS011;51898;49.864;8.550;2024-03-25T16:11:52;3.13;;;2.33;;
10088;SDS011;51898;49.864;8.550;2024-03-25T16:14:53;4.77;;;2.60;;
10088;SDS011;51898;49.864;8.550;2024-03-25T16:17:56;2.97;;;2.70;;
10088;SDS011;51898;49.864;8.550;2024-03-25T16:20:57;3.90;;;3.00;;
10088;SDS011;51898;49.864;8.550;2024-03-25T16:23:58;5.97;;;2.40;;
10088;SDS011;51898;49.864;8.550;2024-03-25T16:26:59;4.70;;;2.57;;
10088;SDS011;51898;49.864;8.550;2024-03-25T16:30:00;4.20;;;2.20;;
10088;SDS011;51898;49.864;8.550;2024-03-25T16:33:01;4.33;;;2.33;;
10088;SDS011;51898;49.864;8.550;2024-03-25T16:36:01;6.63;;;2.43;;
10088;SDS011;51898;49.864;8.550;2024-03-25T16:39:02;5.17;;;2.80;;
10088;SDS011;51898;49.864;8.550;2024-03-25T16:42:04;2.70;;;2.50;;
10088;SDS011;51898;49.864;8.550;2024-03-25T16:45:05;3.90;;;2.13;;
10088;SDS011;51898;49.864;8.550;2024-03-25T16:48:06;3.77;;;2.20;;
10088;SDS011;51898;49.864;8.550;2024-03-25T16:51:09;3.17;;;2.87;;
10088;SDS011;51898;49.864;8.550;2024-03-25T16:54:11;4.37;;;2.77;;
10088;SDS011;51898;49.864;8.550;2024-03-25T16:57:12;3.57;;;2.70;;
10088;SDS011;51898;49.864;8.550;2024-03-25T17:00:13;5.93;;;3.67;;
10088;SDS011;51898;49.864;8.550;2024-03-25T17:03:14;7.97;;;5.50;;
10088;SDS011;51898;49.864;8.550;2024-03-25T17:06:14;5.57;;;2.70;;
10088;SDS011;51898;49.864;8.550;2024-03-25T17:09:15;2.90;;;2.70;;
10088;SDS011;51898;49.864;8.550;2024-03-25T17:12:18;6.33;;;3.07;;
10088;SDS011;51898;49.864;8.550;2024-03-25T17:15:19;2.53;;;2.33;;
10088;SDS011;51898;49.864;8.550;2024-03-25T17:18:19;4.43;;;2.60;;
10088;SDS011;51898;49.864;8.550;2024-03-25T17:21:21;5.23;;;2.30;;
10088;SDS011;51898;49.864;8.550;2024-03-25T17:24:22;4.47;;;3.10;;
10088;SDS011;51898;49.864;8.550;2024-03-25T17:27:23;7.63;;;2.77;;
10088;SDS011;51898;49.864;8.550;2024-03-25T17:30:24;4.90;;;2.70;;
10088;SDS011;51898;49.864;8.550;2024-03-25T17:33:25;5.57;;;3.23;;
10088;SDS011;51898;49.864;8.550;2024-03-25T17:36:26;5.90;;;4.23;;
10088;SDS011;51898;49.864;8.550;2024-03-25T17:39:27;4.43;;;3.20;;
10088;SDS011;51898;49.864;8.550;2024-03-25T17:42:27;9.37;;;3.60;;
10088;SDS011;51898;49.864;8.550;2024-03-25T17:45:28;8.10;;;4.30;;
10088;SDS011;51898;49.864;8.550;2024-03-25T17:48:29;4.33;;;3.40;;
10088;SDS011;51898;49.864;8.550;2024-03-25T17:51:31;3.40;;;2.40;;
10088;SDS011;51898;49.864;8.550;2024-03-25T17:54:32;3.50;;;2.97;;
10088;SDS011;51898;49.864;8.550;2024-03-25T17:57:34;3.43;;;2.70;;
10088;SDS011;51898;49.864;8.550;2024-03-25T18:00:35;2.47;;;2.27;;
10088;SDS011;51898;49.864;8.550;2024-03-25T18:03:35;2.93;;;2.63;;
10088;SDS011;51898;49.864;8.550;2024-03-25T18:06:36;4.70;;;3.10;;
10088;SDS011;51898;49.864;8.550;2024-03-25T18:09:38;6.33;;;3.13;;